sensor_id;sensor_type;location;lat;lon;timestamp;P1;durP1;ratioP1;P2;durP2;ratioP2
33876;SDS011;20166;51.738;7.158;2023-08-01T16:47:27;3.00;;;1.50;;
33876;SDS011;20166;51.738;7.158;2023-08-01T16:53:50;3.28;;;1.42;;
33876;SDS011;20166;51.738;7.158;2023-08-01T16:56:37;3.05;;;1.40;;
33876;SDS011;20166;51.738;7.158;2023-08-01T18:33:37;4.73;;;1.80;;
33876;SDS011;20166;51.738;7.158;2023-08-01T18:36:24;3.53;;;1.60;;
33876;SDS011;20166;51.738;7.158;2023-08-01T18:41:02;6.73;;;1.50;;
33876;SDS011;20166;51.738;7.158;2023-08-01T18:43:49;4.70;;;1.40;;
33876;SDS011;20166;51.738;7.158;2023-08-01T18:46:36;6.23;;;1.60;;
33876;SDS011;20166;51.738;7.158;2023-08-01T18:49:27;1.83;;;1.40;;
33876;SDS011;20166;51.738;7.158;2023-08-01T18:52:13;3.47;;;1.50;;
33876;SDS011;20166;51.738;7.158;2023-08-01T18:54:59;4.30;;;1.30;;
33876;SDS011;20166;51.738;7.158;2023-08-01T19:01:23;6.60;;;1.60;;
33876;SDS011;20166;51.738;7.158;2023-08-01T19:04:11;1.90;;;1.40;;
33876;SDS011;20166;51.738;7.158;2023-08-01T19:06:57;4.23;;;1.53;;
33876;SDS011;20166;51.738;7.158;2023-08-01T19:09:43;2.60;;;1.80;;
33876;SDS011;20166;51.738;7.158;2023-08-01T19:12:30;3.50;;;1.80;;
33876;SDS011;20166;51.738;7.158;2023-08-01T19:15:16;3.93;;;1.60;;
33876;SDS011;20166;51.738;7.158;2023-08-01T19:18:04;6.70;;;2.00;;
33876;SDS011;20166;51.738;7.158;2023-08-01T19:20:51;2.87;;;1.60;;
33876;SDS011;20166;51.738;7.158;2023-08-01T19:23:37;6.37;;;2.23;;
33876;SDS011;20166;51.738;7.158;2023-08-01T19:26:23;3.53;;;1.80;;
33876;SDS011;20166;51.738;7.158;2023-08-01T19:29:10;7.83;;;1.87;;
33876;SDS011;20166;51.738;7.158;2023-08-01T19:31:56;4.90;;;1.70;;
33876;SDS011;20166;51.738;7.158;2023-08-01T19:34:44;4.70;;;1.90;;
33876;SDS011;20166;51.738;7.158;2023-08-01T19:37:31;3.57;;;1.80;;
33876;SDS011;20166;51.738;7.158;2023-08-01T19:40:18;4.93;;;1.80;;
33876;SDS011;20166;51.738;7.158;2023-08-01T19:43:04;7.57;;;2.20;;
33876;SDS011;20166;51.738;7.158;2023-08-01T19:45:50;3.27;;;1.93;;
33876;SDS011;20166;51.738;7.158;2023-08-01T19:48:37;3.33;;;2.10;;
33876;SDS011;20166;51.738;7.158;2023-08-01T19:51:25;7.30;;;2.10;;
33876;SDS011;20166;51.738;7.158;2023-08-01T19:54:11;3.27;;;1.87;;
33876;SDS011;20166;51.738;7.158;2023-08-01T19:56:58;6.77;;;2.00;;
33876;SDS011;20166;51.738;7.158;2023-08-01T19:59:45;5.87;;;2.20;;
33876;SDS011;20166;51.738;7.158;2023-08-01T20:02:33;6.47;;;2.07;;
33876;SDS011;20166;51.738;7.158;2023-08-01T20:05:24;5.77;;;2.30;;
33876;SDS011;20166;51.738;7.158;2023-08-01T20:08:12;4.93;;;1.90;;
33876;SDS011;20166;51.738;7.158;2023-08-01T20:10:59;3.60;;;1.80;;
33876;SDS011;20166;51.738;7.158;2023-08-01T20:13:46;7.77;;;1.90;;
33876;SDS011;20166;51.738;7.158;2023-08-01T20:16:34;4.73;;;1.90;;
33876;SDS011;20166;51.738;7.158;2023-08-01T20:19:21;6.17;;;2.47;;
33876;SDS011;20166;51.738;7.158;2023-08-01T20:22:09;7.47;;;2.20;;
33876;SDS011;20166;51.738;7.158;2023-08-01T20:24:57;6.20;;;2.00;;
33876;SDS011;20166;51.738;7.158;2023-08-01T20:27:43;4.00;;;1.80;;
33876;SDS011;20166;51.738;7.158;2023-08-01T20:30:30;5.33;;;2.03;;
33876;SDS011;20166;51.738;7.158;2023-08-01T20:33:16;6.47;;;2.17;;
33876;SDS011;20166;51.738;7.158;2023-08-01T20:36:05;3.53;;;2.20;;
33876;SDS011;20166;51.738;7.158;2023-08-01T20:38:51;6.83;;;2.00;;
33876;SDS011;20166;51.738;7.158;2023-08-01T20:41:39;5.17;;;2.17;;
33876;SDS011;20166;51.738;7.158;2023-08-01T20:44:26;5.53;;;2.20;;
33876;SDS011;20166;51.738;7.158;2023-08-01T20:47:12;6.43;;;2.07;;
33876;SDS011;20166;51.738;7.158;2023-08-01T20:49:59;6.30;;;2.00;;
33876;SDS011;20166;51.738;7.158;2023-08-01T20:52:46;2.50;;;2.10;;
33876;SDS011;20166;51.738;7.158;2023-08-01T20:55:33;8.23;;;2.03;;
33876;SDS011;20166;51.738;7.158;2023-08-01T20:58:21;6.63;;;2.17;;
33876;SDS011;20166;51.738;7.158;2023-08-01T21:01:07;3.03;;;2.03;;
33876;SDS011;20166;51.738;7.158;2023-08-01T21:03:54;6.33;;;2.17;;
33876;SDS011;20166;51.738;7.158;2023-08-01T21:06:40;4.07;;;2.00;;
33876;SDS011;20166;51.738;7.158;2023-08-01T21:09:27;8.33;;;2.30;;
33876;SDS011;20166;51.738;7.158;2023-08-01T21:12:14;4.00;;;2.20;;
33876;SDS011;20166;51.738;7.158;2023-08-01T21:15:02;5.17;;;2.20;;
33876;SDS011;20166;51.738;7.158;2023-08-01T21:17:49;3.70;;;2.40;;
33876;SDS011;20166;51.738;7.158;2023-08-01T21:20:35;9.43;;;2.33;;
33876;SDS011;20166;51.738;7.158;2023-08-01T21:23:22;3.97;;;2.17;;
33876;SDS011;20166;51.738;7.158;2023-08-01T21:26:12;5.97;;;2.77;;
33876;SDS011;20166;51.738;7.158;2023-08-01T21:28:59;4.83;;;2.70;;
33876;SDS011;20166;51.738;7.158;2023-08-01T21:31:48;5.57;;;2.70;;
33876;SDS011;20166;51.738;7.158;2023-08-01T21:34:35;4.60;;;2.40;;
33876;SDS011;20166;51.738;7.158;2023-08-01T21:37:21;5.10;;;2.40;;
33876;SDS011;20166;51.738;7.158;2023-08-01T21:40:08;4.13;;;2.57;;
33876;SDS011;20166;51.738;7.158;2023-08-01T21:42:54;5.40;;;2.50;;
33876;SDS011;20166;51.738;7.158;2023-08-01T21:45:41;5.57;;;2.63;;
33876;SDS011;20166;51.738;7.158;2023-08-01T21:48:28;4.53;;;2.47;;
33876;SDS011;20166;51.738;7.158;2023-08-01T21:51:15;7.23;;;2.60;;
33876;SDS011;20166;51.738;7.158;2023-08-01T21:54:02;6.73;;;2.43;;
33876;SDS011;20166;51.738;7.158;2023-08-01T21:56:50;6.40;;;2.40;;
33876;SDS011;20166;51.738;7.158;2023-08-01T21:59:37;3.37;;;2.33;;
33876;SDS011;20166;51.738;7.158;2023-08-01T22:02:23;7.60;;;2.73;;
33876;SDS011;20166;51.738;7.158;2023-08-01T22:05:11;9.73;;;2.20;;
33876;SDS011;20166;51.738;7.158;2023-08-01T22:07:57;6.00;;;2.57;;
33876;SDS011;20166;51.738;7.158;2023-08-01T22:10:43;6.03;;;2.40;;
33876;SDS011;20166;51.738;7.158;2023-08-01T22:13:30;6.27;;;2.57;;
33876;SDS011;20166;51.738;7.158;2023-08-01T22:16:16;4.23;;;2.50;;
33876;SDS011;20166;51.738;7.158;2023-08-01T22:19:03;6.13;;;2.50;;
33876;SDS011;20166;51.738;7.158;2023-08-01T22:21:50;5.20;;;2.60;;
33876;SDS011;20166;51.738;7.158;2023-08-01T22:24:37;5.93;;;2.60;;
33876;SDS011;20166;51.738;7.158;2023-08-01T22:27:24;5.90;;;3.07;;
33876;SDS011;20166;51.738;7.158;2023-08-01T22:30:10;7.07;;;2.70;;
33876;SDS011;20166;51.738;7.158;2023-08-01T22:32:57;6.43;;;2.90;;
33876;SDS011;20166;51.738;7.158;2023-08-01T22:35:43;6.60;;;2.60;;
33876;SDS011;20166;51.738;7.158;2023-08-01T22:38:32;9.23;;;3.30;;
33876;SDS011;20166;51.738;7.158;2023-08-01T22:41:20;5.27;;;2.57;;
33876;SDS011;20166;51.738;7.158;2023-08-01T22:44:06;8.13;;;3.10;;
33876;SDS011;20166;51.738;7.158;2023-08-01T22:46:53;7.00;;;3.20;;
33876;SDS011;20166;51.738;7.158;2023-08-01T22:49:39;6.03;;;3.13;;
33876;SDS011;20166;51.738;7.158;2023-08-01T22:52:43;5.10;;;2.90;;
33876;SDS011;20166;51.738;7.158;2023-08-01T22:55:31;5.90;;;3.20;;
33876;SDS011;20166;51.738;7.158;2023-08-01T22:58:18;5.67;;;3.00;;
33876;SDS011;20166;51.738;7.158;2023-08-01T23:01:05;6.43;;;3.40;;
33876;SDS011;20166;51.738;7.158;2023-08-01T23:03:53;7.40;;;3.00;;
33876;SDS011;20166;51.738;7.158;2023-08-01T23:06:40;10.03;;;3.50;;
33876;SDS011;20166;51.738;7.158;2023-08-01T23:09:27;6.87;;;3.50;;
33876;SDS011;20166;51.738;7.158;2023-08-01T23:12:16;11.10;;;3.40;;
33876;SDS011;20166;51.738;7.158;2023-08-01T23:15:03;7.30;;;3.43;;
33876;SDS011;20166;51.738;7.158;2023-08-01T23:17:51;6.20;;;3.17;;
33876;SDS011;20166;51.738;7.158;2023-08-01T23:20:39;9.10;;;3.80;;
33876;SDS011;20166;51.738;7.158;2023-08-01T23:23:25;8.63;;;3.43;;
33876;SDS011;20166;51.738;7.158;2023-08-01T23:26:12;10.53;;;3.83;;
33876;SDS011;20166;51.738;7.158;2023-08-01T23:29:00;12.73;;;3.80;;
33876;SDS011;20166;51.738;7.158;2023-08-01T23:31:46;6.57;;;3.80;;
33876;SDS011;20166;51.738;7.158;2023-08-01T23:34:33;6.70;;;3.60;;
33876;SDS011;20166;51.738;7.158;2023-08-01T23:37:19;7.57;;;3.83;;
33876;SDS011;20166;51.738;7.158;2023-08-01T23:40:05;7.93;;;3.83;;
33876;SDS011;20166;51.738;7.158;2023-08-01T23:42:53;8.67;;;3.80;;
33876;SDS011;20166;51.738;7.158;2023-08-01T23:45:47;6.77;;;3.47;;
33876;SDS011;20166;51.738;7.158;2023-08-01T23:48:35;7.23;;;3.63;;
33876;SDS011;20166;51.738;7.158;2023-08-01T23:51:21;8.90;;;3.70;;
33876;SDS011;20166;51.738;7.158;2023-08-01T23:54:07;15.00;;;4.27;;
33876;SDS011;20166;51.738;7.158;2023-08-01T23:56:54;5.33;;;3.40;;
33876;SDS011;20166;51.738;7.158;2023-08-01T23:59:40;9.73;;;4.03;;
